Time;durP1;ratioP1;P1;durP2;ratioP2;P2;SDS_P1;SDS_P2;PMS_P1;PMS_P2;Temp;Humidity;BMP_temperature;BMP_pressure;BME280_temperature;BME280_humidity;BME280_pressure;Samples;Min_cycle;Max_cycle;Signal;HPM_P1;HPM_P2
2022/04/24 00:01:38;;;;;;;15.07;13.57;;;11.60;99.90;;;;;;5137512;27;20198;-73
2022/04/24 00:04:04;;;;;;;14.18;12.85;;;11.60;99.90;;;;;;5119598;27;20284;-73
2022/04/24 00:06:34;;;;;;;16.50;14.65;;;11.60;99.90;;;;;;5137964;27;20266;-74
2022/04/24 00:09:01;;;;;;;15.80;14.07;;;11.60;99.90;;;;;;5137086;27;20241;-73
2022/04/24 00:11:30;;;;;;;15.35;13.07;;;11.60;99.90;;;;;;5119099;27;20220;-73
2022/04/24 00:13:56;;;;;;;15.85;12.82;;;11.60;99.90;;;;;;5137666;27;20202;-73
2022/04/24 00:16:22;;;;;;;16.08;14.48;;;11.60;99.90;;;;;;5137391;27;20665;-73
2022/04/24 00:18:49;;;;;;;14.27;12.75;;;11.60;99.90;;;;;;5137533;27;20209;-73
2022/04/24 00:21:15;;;;;;;16.00;14.40;;;11.50;99.90;;;;;;5137544;27;20588;-73
2022/04/24 00:23:42;;;;;;;14.73;13.02;;;11.50;99.90;;;;;;5136926;27;20570;-73
2022/04/24 00:26:09;;;;;;;16.45;13.23;;;11.40;99.90;;;;;;5136762;27;20213;-73
2022/04/24 00:28:35;;;;;;;15.32;13.73;;;11.40;99.90;;;;;;5118358;27;20201;-73
2022/04/24 00:31:02;;;;;;;17.33;12.88;;;11.40;99.90;;;;;;5137007;27;20225;-74
2022/04/24 00:33:28;;;;;;;14.45;12.95;;;11.50;99.90;;;;;;5136921;27;20200;-73
2022/04/24 00:35:55;;;;;;;13.80;12.40;;;11.40;99.90;;;;;;5118595;27;20658;-73
2022/04/24 00:38:21;;;;;;;14.80;13.25;;;11.50;99.90;;;;;;5136421;27;20202;-73
2022/04/24 00:40:47;;;;;;;14.48;12.98;;;11.40;99.90;;;;;;5101528;27;20202;-73
2022/04/24 00:43:14;;;;;;;13.95;12.57;;;11.40;99.90;;;;;;5136428;27;20198;-73
2022/04/24 00:45:41;;;;;;;12.80;11.60;;;11.40;99.90;;;;;;5135566;27;20205;-73
2022/04/24 00:48:07;;;;;;;23.58;12.68;;;11.40;99.90;;;;;;5136726;27;20666;-73
2022/04/24 00:50:34;;;;;;;14.68;12.75;;;11.50;99.90;;;;;;5136444;27;20689;-73
2022/04/24 00:53:01;;;;;;;14.63;13.30;;;11.40;99.90;;;;;;5134679;27;20721;-73
2022/04/24 00:55:28;;;;;;;14.10;12.70;;;11.40;99.90;;;;;;5136653;27;20525;-73
2022/04/24 00:57:55;;;;;;;14.70;13.25;;;11.40;99.90;;;;;;5136710;27;20228;-73
2022/04/24 01:00:21;;;;;;;14.45;12.93;;;11.40;99.90;;;;;;5136273;27;20269;-73
2022/04/24 01:02:47;;;;;;;15.30;12.80;;;11.40;99.90;;;;;;5136242;27;20725;-73
2022/04/24 01:05:17;;;;;;;15.40;13.82;;;11.40;99.90;;;;;;5136576;27;20566;-73
2022/04/24 01:07:44;;;;;;;14.88;13.27;;;11.20;99.90;;;;;;5136270;27;20186;-73
2022/04/24 01:10:10;;;;;;;14.68;13.18;;;11.20;99.90;;;;;;5136232;27;20226;-73
2022/04/24 01:12:37;;;;;;;14.43;13.02;;;11.20;99.90;;;;;;5136474;27;20202;-73
2022/04/24 01:15:04;;;;;;;14.52;12.40;;;11.20;99.90;;;;;;5135484;27;20197;-73
2022/04/24 01:17:31;;;;;;;15.93;12.70;;;11.20;99.90;;;;;;5135814;27;20730;-73
2022/04/24 01:19:58;;;;;;;16.23;13.23;;;11.10;99.90;;;;;;5136090;27;20204;-74
2022/04/24 01:22:25;;;;;;;14.85;13.25;;;11.10;99.90;;;;;;5117423;27;20475;-73
2022/04/24 01:24:51;;;;;;;15.48;13.82;;;11.00;99.90;;;;;;5135749;27;20231;-73
2022/04/24 01:27:18;;;;;;;15.05;13.15;;;11.00;99.90;;;;;;5100205;27;20198;-73
2022/04/24 01:29:44;;;;;;;17.05;13.80;;;11.00;99.90;;;;;;5135787;27;20202;-73
2022/04/24 01:32:10;;;;;;;14.65;13.25;;;11.00;99.90;;;;;;5135637;27;20217;-73
2022/04/24 01:34:37;;;;;;;14.65;12.68;;;10.90;99.90;;;;;;5100579;27;20194;-73
2022/04/24 01:37:03;;;;;;;14.48;12.98;;;10.90;99.90;;;;;;5136102;27;20198;-73
2022/04/24 01:39:30;;;;;;;14.50;13.07;;;10.90;99.90;;;;;;5135540;27;20202;-73
2022/04/24 01:41:56;;;;;;;13.55;12.25;;;10.80;99.90;;;;;;5135921;27;20601;-73
2022/04/24 01:44:23;;;;;;;14.90;13.40;;;10.80;99.90;;;;;;5117161;27;20205;-73
2022/04/24 01:46:49;;;;;;;18.73;14.02;;;10.80;99.90;;;;;;5135541;27;20206;-73
2022/04/24 01:49:15;;;;;;;15.18;13.77;;;10.80;99.90;;;;;;5135597;27;20202;-73
2022/04/24 01:51:43;;;;;;;16.73;13.75;;;10.80;99.90;;;;;;5134871;27;20685;-73
2022/04/24 01:54:09;;;;;;;15.90;14.30;;;10.80;99.90;;;;;;5135657;27;20205;-73
2022/04/24 01:56:36;;;;;;;16.00;14.32;;;10.80;99.90;;;;;;5134759;27;20657;-73
2022/04/24 01:59:02;;;;;;;14.75;13.32;;;10.80;99.90;;;;;;5116738;27;20286;-73
2022/04/24 02:01:28;;;;;;;15.15;13.52;;;10.80;99.90;;;;;;5134364;27;20254;-73
2022/04/24 02:03:55;;;;;;;14.75;13.20;;;10.80;99.90;;;;;;5134848;27;20217;-73
2022/04/24 02:06:21;;;;;;;15.45;13.82;;;10.80;99.90;;;;;;5135200;27;20225;-74
2022/04/24 02:08:48;;;;;;;14.40;13.00;;;10.80;99.90;;;;;;5116384;27;20252;-74
2022/04/24 02:11:14;;;;;;;15.00;13.40;;;10.90;99.90;;;;;;5135193;27;20263;-73
2022/04/24 02:13:40;;;;;;;15.95;14.35;;;10.90;99.90;;;;;;5134778;27;20550;-73
2022/04/24 02:16:07;;;;;;;14.50;13.00;;;10.90;99.90;;;;;;5135190;27;20194;-73
2022/04/24 02:18:33;;;;;;;14.55;12.95;;;11.00;99.90;;;;;;5134775;27;20676;-73
2022/04/24 02:21:00;;;;;;;14.60;13.20;;;11.10;99.90;;;;;;5134672;27;20725;-73
2022/04/24 02:23:27;;;;;;;15.10;13.70;;;11.10;99.90;;;;;;5134367;27;20686;-74
2022/04/24 02:25:54;;;;;;;13.65;12.35;;;11.10;99.90;;;;;;5134944;27;20202;-74
2022/04/24 02:28:20;;;;;;;13.40;11.85;;;11.20;99.90;;;;;;5134943;27;20332;-74
2022/04/24 02:30:46;;;;;;;19.55;14.43;;;11.20;99.90;;;;;;5116426;27;20719;-74
2022/04/24 02:33:13;;;;;;;16.05;12.65;;;11.20;99.90;;;;;;5134678;27;20277;-74
2022/04/24 02:35:39;;;;;;;15.10;13.20;;;11.30;99.90;;;;;;5115650;27;20543;-74
2022/04/24 02:38:06;;;;;;;13.75;12.07;;;11.30;99.90;;;;;;5134402;27;20269;-74
2022/04/24 02:40:34;;;;;;;15.90;14.20;;;11.40;99.90;;;;;;5134603;27;20220;-74
2022/04/24 02:43:01;;;;;;;13.38;12.07;;;11.30;99.90;;;;;;5134008;27;20681;-74
2022/04/24 02:45:27;;;;;;;14.45;12.95;;;11.30;99.90;;;;;;5134512;27;20202;-74
2022/04/24 02:47:54;;;;;;;16.08;13.55;;;11.30;99.90;;;;;;5134318;27;20191;-74
2022/04/24 02:50:20;;;;;;;16.25;14.48;;;11.20;99.90;;;;;;5134395;27;20205;-74
2022/04/24 02:52:51;;;;;;;17.38;14.23;;;11.10;99.90;;;;;;5133890;27;20269;-74
2022/04/24 02:55:18;;;;;;;14.90;13.32;;;11.10;99.90;;;;;;5134412;27;20269;-74
2022/04/24 02:57:46;;;;;;;15.57;13.93;;;11.10;99.90;;;;;;5134130;27;20205;-74
2022/04/24 03:00:19;;;;;;;16.23;14.55;;;11.10;99.90;;;;;;5134286;27;20190;-74
2022/04/24 03:02:46;;;;;;;19.55;13.90;;;11.10;99.90;;;;;;5133700;27;20675;-74
2022/04/24 03:05:19;;;;;;;14.07;12.55;;;11.10;99.90;;;;;;5133845;27;20649;-74
2022/04/24 03:07:46;;;;;;;14.73;13.10;;;11.10;99.90;;;;;;5133557;27;20194;-74
2022/04/24 03:10:13;;;;;;;14.93;13.43;;;11.10;99.90;;;;;;5133804;27;20663;-74
2022/04/24 03:12:41;;;;;;;14.15;12.85;;;11.20;99.90;;;;;;5134044;27;20197;-74
2022/04/24 03:15:09;;;;;;;15.65;14.07;;;11.20;99.90;;;;;;5134143;27;20637;-74
2022/04/24 03:17:36;;;;;;;13.98;12.57;;;11.20;99.90;;;;;;5133560;27;20201;-74
2022/04/24 03:20:04;;;;;;;16.02;13.25;;;11.20;99.90;;;;;;5133748;27;20193;-74
2022/04/24 03:22:34;;;;;;;14.75;13.25;;;11.20;99.90;;;;;;5133557;27;20202;-74
2022/04/24 03:25:02;;;;;;;14.68;13.18;;;11.20;99.90;;;;;;5133206;27;20202;-75
2022/04/24 03:27:29;;;;;;;14.32;12.82;;;11.20;99.90;;;;;;5133759;27;20211;-74
2022/04/24 03:29:55;;;;;;;13.95;12.55;;;11.10;99.90;;;;;;5098375;28;20570;-74
2022/04/24 03:32:22;;;;;;;15.32;13.75;;;11.20;99.90;;;;;;5133357;28;20210;-74
2022/04/24 03:34:48;;;;;;;13.25;11.85;;;11.10;99.90;;;;;;5134470;28;20221;-74
2022/04/24 03:37:14;;;;;;;15.57;13.32;;;11.10;99.90;;;;;;5134056;28;20190;-74
2022/04/24 03:39:41;;;;;;;14.15;12.40;;;11.10;99.90;;;;;;5133507;28;20194;-74
2022/04/24 03:42:20;;;;;;;14.40;13.00;;;11.20;99.90;;;;;;5134573;28;20270;-74
2022/04/24 03:45:15;;;;;;;14.90;13.50;;;11.20;99.90;;;;;;5135015;28;20190;-74
2022/04/24 03:48:02;;;;;;;14.27;12.82;;;11.20;99.90;;;;;;5134768;28;20182;-74
2022/04/24 03:50:34;;;;;;;14.88;12.40;;;11.10;99.90;;;;;;5119938;28;20197;-74
2022/04/24 03:53:01;;;;;;;13.88;12.55;;;11.10;99.90;;;;;;5133254;28;20202;-73
2022/04/24 03:55:29;;;;;;;13.95;12.65;;;11.20;99.90;;;;;;5133629;28;20198;-74
2022/04/24 03:57:55;;;;;;;13.20;11.63;;;11.20;99.90;;;;;;5133025;28;20194;-73
2022/04/24 04:00:22;;;;;;;13.45;12.15;;;11.20;99.90;;;;;;5133508;28;20198;-74
2022/04/24 04:02:48;;;;;;;13.32;11.95;;;11.10;99.90;;;;;;5133705;28;20202;-74
2022/04/24 04:05:18;;;;;;;14.93;13.32;;;11.10;99.90;;;;;;5115325;27;20218;-74
2022/04/24 04:07:44;;;;;;;14.25;12.65;;;11.10;99.90;;;;;;5133518;28;20246;-74
2022/04/24 04:10:11;;;;;;;13.73;12.35;;;11.00;99.90;;;;;;5133008;28;20697;-74
2022/04/24 04:12:37;;;;;;;13.05;11.75;;;11.00;99.90;;;;;;5133204;28;20210;-74
2022/04/24 04:15:07;;;;;;;13.73;12.32;;;11.00;99.90;;;;;;5133491;28;20194;-74
2022/04/24 04:17:33;;;;;;;14.30;11.90;;;11.00;99.90;;;;;;5133008;28;20654;-73
2022/04/24 04:20:00;;;;;;;12.30;11.10;;;11.00;99.90;;;;;;5115202;28;20205;-74
2022/04/24 04:22:26;;;;;;;12.90;11.50;;;11.00;99.90;;;;;;5114750;28;20202;-74
2022/04/24 04:24:53;;;;;;;11.65;10.45;;;11.00;99.90;;;;;;5133526;28;20273;-74
2022/04/24 04:27:19;;;;;;;14.02;11.13;;;11.00;99.90;;;;;;5133946;27;20277;-74
2022/04/24 04:29:46;;;;;;;11.90;10.70;;;11.00;99.90;;;;;;5136226;27;20213;-74
2022/04/24 04:32:12;;;;;;;11.77;10.70;;;11.00;99.90;;;;;;5136762;27;20592;-73
2022/04/24 04:34:38;;;;;;;12.30;11.10;;;11.00;99.90;;;;;;5137221;27;20198;-73
2022/04/24 04:37:05;;;;;;;12.05;10.82;;;10.90;99.90;;;;;;5136711;27;20669;-73
2022/04/24 04:39:31;;;;;;;11.35;10.32;;;10.90;99.90;;;;;;5136312;27;20198;-74
2022/04/24 04:41:58;;;;;;;11.38;10.35;;;10.90;99.90;;;;;;5121397;27;20202;-74
2022/04/24 04:44:24;;;;;;;10.45;9.48;;;10.90;99.90;;;;;;5136854;27;20725;-74
2022/04/24 04:46:51;;;;;;;9.68;8.88;;;10.90;99.90;;;;;;5137434;27;20685;-74
2022/04/24 04:49:39;;;;;;;10.00;9.07;;;10.90;99.90;;;;;;5119534;27;20202;-74
2022/04/24 04:52:05;;;;;;;9.57;8.82;;;10.90;99.90;;;;;;5136470;27;20218;-74
2022/04/24 04:54:32;;;;;;;9.98;9.07;;;10.90;99.90;;;;;;5138917;27;20712;-74
2022/04/24 04:57:10;;;;;;;8.75;7.30;;;10.90;99.90;;;;;;5138671;27;20692;-74
2022/04/24 04:59:36;;;;;;;8.35;7.68;;;10.90;99.90;;;;;;5095825;27;20198;-74
2022/04/24 05:02:03;;;;;;;8.18;7.38;;;10.90;99.90;;;;;;5137955;27;20246;-74
2022/04/24 05:04:30;;;;;;;10.18;9.18;;;10.80;99.90;;;;;;5136512;27;20209;-73
2022/04/24 05:06:56;;;;;;;9.27;8.45;;;10.80;99.90;;;;;;5135486;27;20217;-74
2022/04/24 05:09:44;;;;;;;9.40;8.10;;;10.80;99.90;;;;;;5136928;27;20233;-74
2022/04/24 05:12:11;;;;;;;8.68;7.68;;;10.80;99.90;;;;;;5139655;27;20585;-74
2022/04/24 05:14:38;;;;;;;8.07;7.28;;;10.80;99.90;;;;;;5136436;27;20206;-73
2022/04/24 05:17:13;;;;;;;7.35;6.65;;;10.80;99.90;;;;;;5118026;27;20194;-74
2022/04/24 05:19:48;;;;;;;7.50;6.80;;;10.80;99.90;;;;;;5121761;27;20401;-74
2022/04/24 05:22:22;;;;;;;7.13;6.50;;;10.80;99.90;;;;;;5135649;27;20198;-74
2022/04/24 05:24:49;;;;;;;7.55;6.85;;;10.80;99.90;;;;;;5135800;27;20501;-74
2022/04/24 05:27:15;;;;;;;8.23;7.43;;;10.90;99.90;;;;;;5136249;27;20197;-74
2022/04/24 05:29:45;;;;;;;8.05;7.35;;;10.90;99.90;;;;;;5118546;27;20255;-74
2022/04/24 05:32:26;;;;;;;7.18;6.25;;;10.90;99.90;;;;;;5057734;28;20630;-74
2022/04/24 05:34:55;;;;;;;7.50;6.80;;;10.90;99.90;;;;;;5077097;28;20187;-74
2022/04/24 05:37:24;;;;;;;6.43;5.93;;;11.00;99.90;;;;;;5073983;28;20200;-74
2022/04/24 05:39:50;;;;;;;6.28;5.78;;;11.00;99.90;;;;;;5071760;28;20701;-74
2022/04/24 05:42:17;;;;;;;7.80;7.00;;;11.00;99.90;;;;;;5073107;28;20196;-74
2022/04/24 05:44:43;;;;;;;5.95;5.45;;;11.10;99.90;;;;;;5072488;28;20253;-74
2022/04/24 05:47:11;;;;;;;6.53;6.03;;;11.10;99.90;;;;;;5072061;28;20203;-75
2022/04/24 05:49:38;;;;;;;6.85;6.25;;;11.10;99.90;;;;;;5055693;28;20207;-74
2022/04/24 05:52:04;;;;;;;7.20;6.53;;;11.10;99.90;;;;;;5072205;28;20654;-75
2022/04/24 05:54:31;;;;;;;7.18;6.57;;;11.10;99.90;;;;;;5055951;28;20202;-74
2022/04/24 05:56:57;;;;;;;8.20;7.50;;;11.10;99.90;;;;;;5072054;28;20203;-72
2022/04/24 05:59:23;;;;;;;8.10;7.40;;;11.00;99.90;;;;;;5071907;28;20192;-72
2022/04/24 06:01:50;;;;;;;9.55;8.00;;;11.00;99.90;;;;;;5071765;28;20215;-72
2022/04/24 06:04:16;;;;;;;10.43;6.78;;;11.10;99.90;;;;;;5095655;27;20202;-72
2022/04/24 06:06:42;;;;;;;8.30;7.50;;;11.00;99.90;;;;;;5134946;27;20221;-72
2022/04/24 06:09:09;;;;;;;8.63;6.70;;;11.00;99.90;;;;;;5134668;27;20282;-72
2022/04/24 06:11:37;;;;;;;7.78;7.07;;;10.90;99.90;;;;;;5134676;27;20224;-72
2022/04/24 06:14:04;;;;;;;10.77;7.05;;;10.80;99.90;;;;;;5134234;27;20213;-72
2022/04/24 06:16:30;;;;;;;10.00;6.72;;;10.80;99.90;;;;;;5134745;27;20665;-74
2022/04/24 06:18:56;;;;;;;10.48;9.48;;;10.70;99.90;;;;;;5134860;27;20230;-73
2022/04/24 06:21:23;;;;;;;8.23;7.43;;;10.70;99.90;;;;;;5134963;27;20202;-73
2022/04/24 06:23:51;;;;;;;8.60;7.90;;;10.80;99.90;;;;;;5135367;27;20250;-73
2022/04/24 06:26:17;;;;;;;8.77;7.88;;;10.80;99.90;;;;;;5134232;27;20267;-73
2022/04/24 06:28:44;;;;;;;9.32;8.52;;;10.90;99.90;;;;;;5134790;27;20206;-73
2022/04/24 06:31:10;;;;;;;9.35;7.93;;;10.90;99.90;;;;;;5135278;27;20212;-74
2022/04/24 06:33:36;;;;;;;10.57;9.50;;;10.90;99.90;;;;;;5134752;27;20193;-74
2022/04/24 06:36:03;;;;;;;10.35;9.32;;;10.80;99.90;;;;;;5134561;27;20198;-74
2022/04/24 06:38:29;;;;;;;9.35;8.38;;;10.80;99.90;;;;;;5134244;27;20202;-74
2022/04/24 06:40:56;;;;;;;8.27;7.47;;;10.80;99.90;;;;;;5134687;27;20204;-74
2022/04/24 06:43:22;;;;;;;12.52;8.77;;;10.70;99.90;;;;;;5133727;27;20198;-74
2022/04/24 06:45:49;;;;;;;9.40;8.55;;;10.70;99.90;;;;;;5115859;27;20197;-74
2022/04/24 06:48:16;;;;;;;10.80;9.70;;;10.50;99.90;;;;;;5133641;27;20201;-74
2022/04/24 06:50:45;;;;;;;12.15;11.05;;;10.20;99.90;;;;;;5133567;27;20194;-74
2022/04/24 06:53:18;;;;;;;12.75;10.25;;;10.10;99.90;;;;;;5134182;27;20287;-74
2022/04/24 06:55:45;;;;;;;12.82;10.35;;;10.20;99.90;;;;;;5115951;27;20198;-74
2022/04/24 06:58:15;;;;;;;17.85;10.20;;;10.20;99.90;;;;;;5134391;27;20200;-76
2022/04/24 07:00:43;;;;;;;11.10;9.75;;;10.20;99.90;;;;;;5134128;27;20202;-75
2022/04/24 07:03:14;;;;;;;10.60;9.30;;;10.10;99.90;;;;;;5133558;27;20630;-74
2022/04/24 07:05:42;;;;;;;10.75;9.10;;;10.10;99.90;;;;;;5116271;27;20222;-74
2022/04/24 07:08:09;;;;;;;11.73;9.18;;;10.20;99.90;;;;;;5133718;27;20197;-74
2022/04/24 07:10:35;;;;;;;10.25;9.15;;;10.20;99.90;;;;;;5134564;27;20189;-74
2022/04/24 07:13:03;;;;;;;10.63;7.80;;;10.20;99.90;;;;;;5134131;27;20266;-72
2022/04/24 07:15:32;;;;;;;5.63;5.20;;;10.20;99.90;;;;;;5115732;27;20234;-77
2022/04/24 07:17:59;;;;;;;4.05;3.53;;;10.10;99.90;;;;;;5133789;27;20198;-73
2022/04/24 07:20:27;;;;;;;3.42;3.22;;;10.00;99.90;;;;;;5133320;27;20250;-73
2022/04/24 07:23:01;;;;;;;29.42;27.33;;;9.90;99.90;;;;;;5132808;27;20208;-76
2022/04/24 07:25:45;;;;;;;6.40;6.00;;;10.10;99.90;;;;;;5133850;27;20219;-74
2022/04/24 07:28:15;;;;;;;3.15;2.92;;;10.00;99.90;;;;;;5134025;27;20549;-74
2022/04/24 07:30:42;;;;;;;1.90;1.80;;;10.10;99.90;;;;;;5133213;27;20607;-74
2022/04/24 07:33:09;;;;;;;5.15;2.10;;;10.00;99.90;;;;;;5133129;28;20226;-74
2022/04/24 07:35:38;;;;;;;2.28;1.90;;;9.90;99.90;;;;;;5133167;28;20201;-74
2022/04/24 07:38:04;;;;;;;1.70;1.40;;;9.90;99.90;;;;;;5133566;28;20202;-74
2022/04/24 07:40:33;;;;;;;1.10;1.00;;;9.90;99.90;;;;;;5133878;28;20202;-74
2022/04/24 07:43:04;;;;;;;1.55;1.45;;;9.70;99.90;;;;;;5133598;28;20676;-74
2022/04/24 07:45:35;;;;;;;1.58;1.48;;;10.00;99.90;;;;;;5134203;28;20213;-74
2022/04/24 07:48:03;;;;;;;1.60;1.50;;;10.00;99.90;;;;;;5133304;28;20225;-75
2022/04/24 07:50:39;;;;;;;2.17;2.08;;;10.00;99.90;;;;;;5133557;28;20208;-74
2022/04/24 07:53:06;;;;;;;1.10;1.00;;;9.90;99.90;;;;;;5133869;28;20201;-74
2022/04/24 07:55:33;;;;;;;3.58;1.70;;;9.80;99.90;;;;;;5133682;28;20649;-74
2022/04/24 07:58:00;;;;;;;1.63;1.20;;;9.80;99.90;;;;;;5133543;28;20198;-74
2022/04/24 08:00:29;;;;;;;1.42;1.33;;;9.80;99.90;;;;;;5132905;28;20262;-74
2022/04/24 08:03:00;;;;;;;1.58;1.48;;;9.80;99.90;;;;;;5116536;27;20204;-74
2022/04/24 08:05:27;;;;;;;1.67;1.58;;;9.70;99.90;;;;;;5137788;27;20376;-74
2022/04/24 08:07:55;;;;;;;1.65;1.55;;;9.60;99.90;;;;;;5137343;27;20214;-75
2022/04/24 08:10:23;;;;;;;2.83;1.83;;;9.70;99.90;;;;;;5137407;27;20701;-75
2022/04/24 08:12:50;;;;;;;2.88;2.67;;;9.60;99.90;;;;;;5137284;27;20226;-75
2022/04/24 08:15:17;;;;;;;4.15;1.90;;;9.70;99.90;;;;;;5137657;27;20205;-76
2022/04/24 08:17:44;;;;;;;2.10;2.00;;;9.80;99.90;;;;;;5137479;27;20213;-75
2022/04/24 08:20:12;;;;;;;1.70;1.60;;;9.80;99.90;;;;;;5137482;27;20202;-75
2022/04/24 08:22:41;;;;;;;1.15;1.15;;;9.80;99.90;;;;;;5118574;27;20197;-75
2022/04/24 08:25:08;;;;;;;2.25;1.90;;;9.90;99.90;;;;;;5137313;27;20202;-75
2022/04/24 08:27:35;;;;;;;11.90;10.68;;;10.10;99.90;;;;;;5137181;27;20202;-74
2022/04/24 08:30:07;;;;;;;17.40;14.07;;;10.00;99.90;;;;;;5137075;27;20198;-74
2022/04/24 08:32:37;;;;;;;15.80;14.05;;;9.70;99.90;;;;;;5138225;27;20216;-76
2022/04/24 08:35:05;;;;;;;17.05;15.35;;;9.70;99.90;;;;;;5102726;27;20205;-74
2022/04/24 08:37:32;;;;;;;17.35;15.57;;;9.70;99.90;;;;;;5137477;27;20653;-74
2022/04/24 08:39:59;;;;;;;17.35;15.55;;;9.80;99.90;;;;;;5138228;27;20205;-75
2022/04/24 08:42:27;;;;;;;17.65;15.80;;;9.70;99.90;;;;;;5139086;27;20202;-74
2022/04/24 08:44:57;;;;;;;17.17;15.48;;;9.60;99.90;;;;;;5119884;27;20586;-74
2022/04/24 08:47:39;;;;;;;17.92;16.13;;;9.70;99.90;;;;;;5130596;27;20202;-74
2022/04/24 08:50:06;;;;;;;21.05;17.67;;;9.70;99.90;;;;;;5138770;27;20228;-74
2022/04/24 08:52:33;;;;;;;18.15;16.30;;;9.60;99.90;;;;;;5102461;27;20222;-74
2022/04/24 08:55:02;;;;;;;21.08;18.08;;;9.60;99.90;;;;;;5137922;27;20198;-75
2022/04/24 08:57:32;;;;;;;19.88;15.48;;;9.80;99.90;;;;;;5137985;27;20277;-75
2022/04/24 09:00:00;;;;;;;16.97;14.50;;;9.80;99.90;;;;;;5137925;27;20737;-72
2022/04/24 09:02:27;;;;;;;25.58;22.63;;;9.80;99.90;;;;;;5120339;27;20619;-73
2022/04/24 09:04:54;;;;;;;18.60;16.70;;;9.80;99.90;;;;;;5137866;27;20607;-74
2022/04/24 09:07:21;;;;;;;13.80;12.50;;;9.90;99.90;;;;;;5135949;27;20197;-74
2022/04/24 09:09:53;;;;;;;14.15;12.65;;;9.90;99.90;;;;;;5135812;27;20232;-74
2022/04/24 09:12:24;;;;;;;15.35;13.75;;;9.90;99.90;;;;;;5136945;27;20240;-76
2022/04/24 09:14:56;;;;;;;18.75;16.83;;;9.90;99.90;;;;;;5135004;27;20309;-75
2022/04/24 09:17:32;;;;;;;18.20;15.00;;;9.90;99.90;;;;;;5137697;27;20614;-74
2022/04/24 09:20:00;;;;;;;12.80;11.60;;;10.00;99.90;;;;;;5117345;27;20209;-74
2022/04/24 09:22:27;;;;;;;16.75;15.05;;;9.90;99.90;;;;;;5117296;27;20259;-74
2022/04/24 09:25:10;;;;;;;21.08;18.98;;;9.90;99.90;;;;;;5135755;27;20213;-74
2022/04/24 09:27:38;;;;;;;13.63;12.32;;;9.90;99.90;;;;;;5119043;27;20202;-74
2022/04/24 09:30:09;;;;;;;22.67;20.60;;;9.90;99.90;;;;;;5136058;27;20205;-73
2022/04/24 09:32:57;;;;;;;18.85;16.42;;;10.00;99.90;;;;;;5135650;27;20213;-73
2022/04/24 09:35:27;;;;;;;16.38;13.75;;;10.10;99.90;;;;;;5117708;27;20649;-73
2022/04/24 09:38:13;;;;;;;13.30;12.00;;;10.10;99.90;;;;;;5136191;27;20190;-73
2022/04/24 09:40:44;;;;;;;14.90;13.40;;;9.90;99.90;;;;;;5135127;27;20220;-73
2022/04/24 09:43:22;;;;;;;15.65;13.35;;;9.90;99.90;;;;;;5136819;27;20386;-73
2022/04/24 09:46:19;;;;;;;15.30;13.70;;;10.10;99.90;;;;;;5137424;27;20191;-73
2022/04/24 09:48:51;;;;;;;17.30;12.88;;;9.90;99.90;;;;;;5127602;27;20201;-73
2022/04/24 09:51:18;;;;;;;13.82;11.40;;;10.00;99.90;;;;;;5136198;27;20186;-73
2022/04/24 09:53:47;;;;;;;15.98;13.32;;;10.10;99.90;;;;;;5135427;27;20209;-74
2022/04/24 09:56:26;;;;;;;12.75;11.55;;;10.20;99.90;;;;;;5135487;27;20198;-74
2022/04/24 09:58:54;;;;;;;11.90;10.80;;;10.00;99.90;;;;;;5135620;27;20197;-73
2022/04/24 10:01:22;;;;;;;11.70;10.60;;;10.10;99.90;;;;;;5136341;27;20205;-74
2022/04/24 10:03:49;;;;;;;12.43;11.23;;;10.10;99.90;;;;;;5136776;27;20198;-74
2022/04/24 10:06:22;;;;;;;12.50;11.32;;;10.20;99.90;;;;;;5118352;27;20606;-74
2022/04/24 10:08:51;;;;;;;11.88;10.57;;;10.30;99.90;;;;;;5135407;27;20225;-72
2022/04/24 10:11:18;;;;;;;8.77;8.07;;;10.40;99.90;;;;;;5135907;27;20193;-74
2022/04/24 10:13:46;;;;;;;8.38;7.68;;;10.30;99.90;;;;;;5116680;27;20225;-74
2022/04/24 10:16:34;;;;;;;7.68;6.95;;;10.40;99.90;;;;;;5136408;27;20198;-74
2022/04/24 10:19:16;;;;;;;6.18;5.68;;;10.40;99.90;;;;;;5135382;27;20202;-74
2022/04/24 10:22:23;;;;;;;6.40;5.88;;;10.30;99.90;;;;;;5133340;27;20198;-74
2022/04/24 10:25:00;;;;;;;5.60;4.60;;;10.10;99.90;;;;;;5135282;27;20608;-74
2022/04/24 10:27:43;;;;;;;5.07;4.68;;;10.00;99.90;;;;;;5135406;27;20177;-74
2022/04/24 10:30:22;;;;;;;5.93;5.43;;;9.90;99.90;;;;;;5116430;27;20622;-74
2022/04/24 10:32:49;;;;;;;2.50;2.40;;;9.90;99.90;;;;;;5135060;27;20698;-74
2022/04/24 10:35:18;;;;;;;4.05;3.67;;;10.00;99.90;;;;;;5135477;27;20193;-74
2022/04/24 10:37:47;;;;;;;5.70;3.42;;;9.90;99.90;;;;;;5133955;27;20564;-74
2022/04/24 10:40:16;;;;;;;7.65;7.05;;;9.90;99.90;;;;;;5135509;27;20217;-74
2022/04/24 10:42:43;;;;;;;5.20;4.78;;;9.90;99.90;;;;;;5133980;27;20197;-74
2022/04/24 10:45:14;;;;;;;6.72;5.35;;;9.80;99.90;;;;;;5135542;27;20201;-74
2022/04/24 10:47:50;;;;;;;3.67;2.55;;;9.90;99.90;;;;;;5134998;27;20189;-73
2022/04/24 10:50:18;;;;;;;3.90;3.60;;;9.70;99.90;;;;;;5134540;27;20189;-73
2022/04/24 10:52:49;;;;;;;4.15;3.80;;;9.70;99.90;;;;;;5115940;27;20714;-73
2022/04/24 10:55:19;;;;;;;4.80;4.40;;;9.80;99.90;;;;;;5134301;27;20186;-73
2022/04/24 10:57:48;;;;;;;5.15;4.20;;;9.80;99.90;;;;;;5134535;27;20197;-73
2022/04/24 11:00:32;;;;;;;8.70;7.57;;;9.70;99.90;;;;;;5133780;27;20194;-73
2022/04/24 11:03:08;;;;;;;4.82;4.50;;;9.70;99.90;;;;;;5115412;28;20198;-73
2022/04/24 11:05:39;;;;;;;3.25;3.05;;;9.80;99.90;;;;;;5133990;27;20224;-73
2022/04/24 11:08:07;;;;;;;3.95;3.58;;;9.80;99.90;;;;;;5133816;27;20684;-74
2022/04/24 11:10:42;;;;;;;2.80;2.60;;;10.00;99.90;;;;;;5114961;27;20301;-74
2022/04/24 11:13:10;;;;;;;2.45;2.25;;;10.00;99.90;;;;;;5134116;27;20204;-73
2022/04/24 11:15:44;;;;;;;3.28;3.08;;;10.00;99.90;;;;;;5134179;27;20208;-74
2022/04/24 11:18:21;;;;;;;3.55;2.80;;;10.00;99.90;;;;;;5133544;27;20632;-74
2022/04/24 11:21:03;;;;;;;2.90;2.80;;;10.20;99.90;;;;;;5134175;27;20558;-74
2022/04/24 11:23:37;;;;;;;2.72;2.53;;;10.10;99.90;;;;;;5133691;27;20198;-74
2022/04/24 11:26:08;;;;;;;4.22;3.92;;;10.10;99.90;;;;;;5115446;27;20201;-73
2022/04/24 11:28:36;;;;;;;5.20;4.85;;;10.00;99.90;;;;;;5133797;27;20198;-74
2022/04/24 11:31:10;;;;;;;6.95;5.95;;;10.00;99.90;;;;;;5133313;27;20741;-74
2022/04/24 11:33:38;;;;;;;6.00;4.45;;;10.00;99.90;;;;;;5132969;27;20237;-74
2022/04/24 11:36:05;;;;;;;6.28;5.28;;;10.00;99.90;;;;;;5133336;28;20246;-74
2022/04/24 11:38:33;;;;;;;5.53;5.13;;;10.10;99.90;;;;;;5139386;27;20207;-74
2022/04/24 11:41:04;;;;;;;5.43;5.03;;;10.10;99.90;;;;;;5139871;27;20246;-73
2022/04/24 11:43:30;;;;;;;5.90;5.50;;;10.10;99.90;;;;;;5140837;27;20239;-73
2022/04/24 11:51:32;;;;;;;3.28;2.42;;;10.10;99.90;;;;;;5140436;27;20645;-73
2022/04/24 11:53:58;;;;;;;1.80;1.70;;;10.10;99.90;;;;;;5140036;27;20566;-73
2022/04/24 11:56:25;;;;;;;3.03;2.28;;;10.10;99.90;;;;;;5140527;27;20235;-73
2022/04/24 11:58:52;;;;;;;2.40;2.30;;;10.00;99.90;;;;;;5140409;27;20198;-73
2022/04/24 12:01:19;;;;;;;3.60;2.70;;;10.10;99.90;;;;;;5122271;27;20205;-74
2022/04/24 12:03:46;;;;;;;3.95;3.67;;;10.20;99.90;;;;;;5140772;27;20228;-74
2022/04/24 12:06:13;;;;;;;10.63;9.50;;;10.30;99.90;;;;;;5139502;27;20225;-72
2022/04/24 12:08:45;;;;;;;17.35;11.30;;;10.10;99.90;;;;;;5139356;27;20233;-72
2022/04/24 12:11:32;;;;;;;9.88;8.70;;;9.90;99.90;;;;;;5140002;27;20205;-72
2022/04/24 12:14:03;;;;;;;10.05;8.40;;;9.80;99.90;;;;;;5140508;27;20274;-71
2022/04/24 12:16:30;;;;;;;6.75;6.15;;;10.00;99.90;;;;;;5140684;27;20178;-72
2022/04/24 12:18:58;;;;;;;6.25;5.65;;;10.00;99.90;;;;;;5140050;27;20208;-71
2022/04/24 12:21:26;;;;;;;3.75;3.55;;;10.10;99.90;;;;;;5140169;27;20190;-72
2022/04/24 12:23:54;;;;;;;4.10;3.80;;;10.20;99.90;;;;;;5140242;27;20205;-72
2022/04/24 12:26:21;;;;;;;3.83;3.53;;;10.20;99.90;;;;;;5140252;27;20201;-72
2022/04/24 12:28:48;;;;;;;4.00;3.72;;;10.40;99.90;;;;;;5140101;27;20204;-73
2022/04/24 12:31:26;;;;;;;3.80;3.50;;;10.40;99.90;;;;;;5139084;27;20571;-72
2022/04/24 12:33:54;;;;;;;3.63;3.33;;;10.30;99.90;;;;;;5140329;27;20567;-72
2022/04/24 12:36:21;;;;;;;3.13;2.92;;;10.50;99.90;;;;;;5139836;27;20198;-72
2022/04/24 12:39:06;;;;;;;4.47;3.53;;;10.40;99.90;;;;;;5139860;27;20201;-72
2022/04/24 12:41:36;;;;;;;7.53;4.10;;;10.50;99.90;;;;;;5139310;27;20293;-73
2022/04/24 12:44:07;;;;;;;5.10;4.60;;;10.50;99.90;;;;;;5139524;27;20642;-73
2022/04/24 12:46:35;;;;;;;7.57;6.85;;;10.60;99.90;;;;;;5139907;27;20191;-72
2022/04/24 12:49:03;;;;;;;7.30;6.63;;;10.50;99.90;;;;;;5138967;27;20209;-73
2022/04/24 12:51:30;;;;;;;11.98;7.90;;;10.60;99.90;;;;;;5118713;27;20201;-72
2022/04/24 12:53:59;;;;;;;8.38;7.30;;;10.60;99.90;;;;;;5136648;27;20221;-73